sensor_id;sensor_type;location;lat;lon;timestamp;temperature;humidity
67364;HTU21D;54250;45.572;38.086;2023-04-03T00:01:38;6.54;70.45
67364;HTU21D;54250;45.572;38.086;2023-04-03T00:04:05;6.64;70.88
67364;HTU21D;54250;45.572;38.086;2023-04-03T00:06:31;6.78;71.54
67364;HTU21D;54250;45.572;38.086;2023-04-03T00:08:58;6.84;71.60
67364;HTU21D;54250;45.572;38.086;2023-04-03T00:11:24;6.97;72.71
67364;HTU21D;54250;45.572;38.086;2023-04-03T00:13:50;7.10;73.03
67364;HTU21D;54250;45.572;38.086;2023-04-03T00:16:17;7.15;73.70
67364;HTU21D;54250;45.572;38.086;2023-04-03T00:18:43;7.22;73.54
67364;HTU21D;54250;45.572;38.086;2023-04-03T00:21:12;7.25;73.24
67364;HTU21D;54250;45.572;38.086;2023-04-03T00:23:38;7.31;73.13
67364;HTU21D;54250;45.572;38.086;2023-04-03T00:26:04;7.35;72.83
67364;HTU21D;54250;45.572;38.086;2023-04-03T00:28:30;7.34;73.06
67364;HTU21D;54250;45.572;38.086;2023-04-03T00:30:56;7.46;74.37
67364;HTU21D;54250;45.572;38.086;2023-04-03T00:33:22;7.58;74.70
67364;HTU21D;54250;45.572;38.086;2023-04-03T00:35:48;7.65;74.34
67364;HTU21D;54250;45.572;38.086;2023-04-03T00:38:15;7.73;75.32
67364;HTU21D;54250;45.572;38.086;2023-04-03T00:40:46;7.87;75.18
67364;HTU21D;54250;45.572;38.086;2023-04-03T00:43:23;8.03;74.98
67364;HTU21D;54250;45.572;38.086;2023-04-03T00:45:51;8.08;74.92
67364;HTU21D;54250;45.572;38.086;2023-04-03T00:48:28;8.16;75.24
67364;HTU21D;54250;45.572;38.086;2023-04-03T00:50:57;8.28;75.17
67364;HTU21D;54250;45.572;38.086;2023-04-03T00:53:30;8.41;74.96
67364;HTU21D;54250;45.572;38.086;2023-04-03T00:55:57;8.60;74.79
67364;HTU21D;54250;45.572;38.086;2023-04-03T00:58:31;8.79;74.62
67364;HTU21D;54250;45.572;38.086;2023-04-03T01:01:03;8.98;74.38
67364;HTU21D;54250;45.572;38.086;2023-04-03T01:03:30;9.21;74.27
67364;HTU21D;54250;45.572;38.086;2023-04-03T01:05:58;9.44;74.63
67364;HTU21D;54250;45.572;38.086;2023-04-03T01:08:25;9.61;74.47
67364;HTU21D;54250;45.572;38.086;2023-04-03T01:10:51;9.68;74.54
67364;HTU21D;54250;45.572;38.086;2023-04-03T01:13:25;9.76;75.03
67364;HTU21D;54250;45.572;38.086;2023-04-03T01:15:51;9.83;75.47
67364;HTU21D;54250;45.572;38.086;2023-04-03T01:18:18;9.89;75.29
67364;HTU21D;54250;45.572;38.086;2023-04-03T01:23:35;9.96;75.57
67364;HTU21D;54250;45.572;38.086;2023-04-03T01:26:05;10.01;76.02
67364;HTU21D;54250;45.572;38.086;2023-04-03T01:28:33;10.09;76.26
67364;HTU21D;54250;45.572;38.086;2023-04-03T01:33:39;10.21;76.50
67364;HTU21D;54250;45.572;38.086;2023-04-03T01:36:07;10.31;76.26
67364;HTU21D;54250;45.572;38.086;2023-04-03T01:38:33;10.38;75.73
67364;HTU21D;54250;45.572;38.086;2023-04-03T01:41:00;10.45;76.30
67364;HTU21D;54250;45.572;38.086;2023-04-03T01:43:27;10.51;76.53
67364;HTU21D;54250;45.572;38.086;2023-04-03T01:45:52;10.53;76.33
67364;HTU21D;54250;45.572;38.086;2023-04-03T01:48:20;10.52;76.56
67364;HTU21D;54250;45.572;38.086;2023-04-03T01:50:46;10.51;76.45
67364;HTU21D;54250;45.572;38.086;2023-04-03T01:53:13;10.49;76.27
67364;HTU21D;54250;45.572;38.086;2023-04-03T01:55:39;10.35;76.31
67364;HTU21D;54250;45.572;38.086;2023-04-03T01:58:05;10.26;76.83
67364;HTU21D;54250;45.572;38.086;2023-04-03T02:00:31;10.22;77.38
67364;HTU21D;54250;45.572;38.086;2023-04-03T02:02:57;10.20;77.68
67364;HTU21D;54250;45.572;38.086;2023-04-03T02:05:25;10.16;77.69
67364;HTU21D;54250;45.572;38.086;2023-04-03T02:07:51;10.03;77.40
67364;HTU21D;54250;45.572;38.086;2023-04-03T02:10:18;9.88;77.88
67364;HTU21D;54250;45.572;38.086;2023-04-03T02:12:44;9.80;77.67
67364;HTU21D;54250;45.572;38.086;2023-04-03T02:15:10;9.68;77.40
67364;HTU21D;54250;45.572;38.086;2023-04-03T02:17:37;9.47;77.43
67364;HTU21D;54250;45.572;38.086;2023-04-03T02:20:03;9.26;77.38
67364;HTU21D;54250;45.572;38.086;2023-04-03T02:22:30;9.09;77.44
67364;HTU21D;54250;45.572;38.086;2023-04-03T02:24:56;8.92;77.15
67364;HTU21D;54250;45.572;38.086;2023-04-03T02:27:22;8.80;77.18
67364;HTU21D;54250;45.572;38.086;2023-04-03T02:29:48;8.71;77.40
67364;HTU21D;54250;45.572;38.086;2023-04-03T02:32:14;8.66;77.80
67364;HTU21D;54250;45.572;38.086;2023-04-03T02:34:40;8.66;77.26
67364;HTU21D;54250;45.572;38.086;2023-04-03T02:37:08;8.67;77.41
67364;HTU21D;54250;45.572;38.086;2023-04-03T02:39:35;8.71;77.52
67364;HTU21D;54250;45.572;38.086;2023-04-03T02:42:01;8.76;77.50
67364;HTU21D;54250;45.572;38.086;2023-04-03T02:44:27;8.86;78.11
67364;HTU21D;54250;45.572;38.086;2023-04-03T02:46:53;8.96;78.28
67364;HTU21D;54250;45.572;38.086;2023-04-03T02:49:19;9.04;78.51
67364;HTU21D;54250;45.572;38.086;2023-04-03T02:51:45;9.06;79.15
67364;HTU21D;54250;45.572;38.086;2023-04-03T02:54:12;9.06;78.98
67364;HTU21D;54250;45.572;38.086;2023-04-03T02:56:42;9.07;79.17
67364;HTU21D;54250;45.572;38.086;2023-04-03T02:59:08;9.10;78.89
67364;HTU21D;54250;45.572;38.086;2023-04-03T03:01:37;9.14;78.94
67364;HTU21D;54250;45.572;38.086;2023-04-03T03:04:03;9.16;78.69
67364;HTU21D;54250;45.572;38.086;2023-04-03T03:06:29;9.23;78.81
67364;HTU21D;54250;45.572;38.086;2023-04-03T03:08:55;9.27;78.52
67364;HTU21D;54250;45.572;38.086;2023-04-03T03:11:21;9.32;78.37
67364;HTU21D;54250;45.572;38.086;2023-04-03T03:13:47;9.33;78.37
67364;HTU21D;54250;45.572;38.086;2023-04-03T03:16:13;9.37;78.18
67364;HTU21D;54250;45.572;38.086;2023-04-03T03:18:40;9.49;78.22
67364;HTU21D;54250;45.572;38.086;2023-04-03T03:21:06;9.65;78.07
67364;HTU21D;54250;45.572;38.086;2023-04-03T03:23:32;9.84;78.09
67364;HTU21D;54250;45.572;38.086;2023-04-03T03:26:01;9.99;77.84
67364;HTU21D;54250;45.572;38.086;2023-04-03T03:28:28;10.14;77.66
67364;HTU21D;54250;45.572;38.086;2023-04-03T03:30:55;10.26;77.53
67364;HTU21D;54250;45.572;38.086;2023-04-03T03:33:22;10.38;77.51
67364;HTU21D;54250;45.572;38.086;2023-04-03T03:35:48;10.52;77.40
67364;HTU21D;54250;45.572;38.086;2023-04-03T03:38:14;10.59;77.37
67364;HTU21D;54250;45.572;38.086;2023-04-03T03:40:40;10.67;77.63
67364;HTU21D;54250;45.572;38.086;2023-04-03T03:43:06;10.74;77.34
67364;HTU21D;54250;45.572;38.086;2023-04-03T03:45:32;10.79;77.32
67364;HTU21D;54250;45.572;38.086;2023-04-03T03:47:58;10.84;77.36
67364;HTU21D;54250;45.572;38.086;2023-04-03T03:50:25;10.88;77.19
67364;HTU21D;54250;45.572;38.086;2023-04-03T03:52:51;10.94;77.15
67364;HTU21D;54250;45.572;38.086;2023-04-03T03:55:17;10.99;77.23
67364;HTU21D;54250;45.572;38.086;2023-04-03T03:57:47;11.04;77.54
67364;HTU21D;54250;45.572;38.086;2023-04-03T04:00:13;11.10;77.42
67364;HTU21D;54250;45.572;38.086;2023-04-03T04:02:47;11.17;77.55
67364;HTU21D;54250;45.572;38.086;2023-04-03T04:05:17;11.24;77.46
67364;HTU21D;54250;45.572;38.086;2023-04-03T04:07:44;11.29;77.40
67364;HTU21D;54250;45.572;38.086;2023-04-03T04:10:10;11.34;77.32
67364;HTU21D;54250;45.572;38.086;2023-04-03T04:12:36;11.41;77.46
67364;HTU21D;54250;45.572;38.086;2023-04-03T04:15:03;11.45;77.58
67364;HTU21D;54250;45.572;38.086;2023-04-03T04:17:29;11.46;77.40
67364;HTU21D;54250;45.572;38.086;2023-04-03T04:19:56;11.48;77.51
67364;HTU21D;54250;45.572;38.086;2023-04-03T04:22:23;11.49;78.08
67364;HTU21D;54250;45.572;38.086;2023-04-03T04:24:49;11.49;78.01
67364;HTU21D;54250;45.572;38.086;2023-04-03T04:27:15;11.53;77.75
67364;HTU21D;54250;45.572;38.086;2023-04-03T04:29:42;11.54;78.05
67364;HTU21D;54250;45.572;38.086;2023-04-03T04:32:08;11.53;78.07
67364;HTU21D;54250;45.572;38.086;2023-04-03T04:34:35;11.56;78.00
67364;HTU21D;54250;45.572;38.086;2023-04-03T04:37:01;11.58;77.97
67364;HTU21D;54250;45.572;38.086;2023-04-03T04:39:28;11.60;77.99
67364;HTU21D;54250;45.572;38.086;2023-04-03T04:41:56;11.60;77.89
67364;HTU21D;54250;45.572;38.086;2023-04-03T04:44:24;11.56;78.24
67364;HTU21D;54250;45.572;38.086;2023-04-03T04:46:50;11.49;78.43
67364;HTU21D;54250;45.572;38.086;2023-04-03T04:49:16;11.43;78.60
67364;HTU21D;54250;45.572;38.086;2023-04-03T04:51:43;11.38;78.66
67364;HTU21D;54250;45.572;38.086;2023-04-03T04:54:10;11.34;78.72
67364;HTU21D;54250;45.572;38.086;2023-04-03T04:56:37;11.32;78.97
67364;HTU21D;54250;45.572;38.086;2023-04-03T04:59:03;11.33;79.21
67364;HTU21D;54250;45.572;38.086;2023-04-03T05:01:30;11.32;79.13
67364;HTU21D;54250;45.572;38.086;2023-04-03T05:04:07;11.36;79.26
67364;HTU21D;54250;45.572;38.086;2023-04-03T05:06:35;11.39;79.46
67364;HTU21D;54250;45.572;38.086;2023-04-03T05:09:03;11.62;79.14
67364;HTU21D;54250;45.572;38.086;2023-04-03T05:11:31;11.81;79.21
67364;HTU21D;54250;45.572;38.086;2023-04-03T05:13:57;12.95;76.99
67364;HTU21D;54250;45.572;38.086;2023-04-03T05:16:25;14.88;72.80
67364;HTU21D;54250;45.572;38.086;2023-04-03T05:18:52;16.62;69.45
67364;HTU21D;54250;45.572;38.086;2023-04-03T05:21:21;18.42;66.38
67364;HTU21D;54250;45.572;38.086;2023-04-03T05:23:50;19.66;63.90
67364;HTU21D;54250;45.572;38.086;2023-04-03T05:26:17;20.13;62.63
67364;HTU21D;54250;45.572;38.086;2023-04-03T05:28:45;20.86;62.50
67364;HTU21D;54250;45.572;38.086;2023-04-03T05:31:13;21.78;60.76
67364;HTU21D;54250;45.572;38.086;2023-04-03T05:33:39;22.61;58.87
67364;HTU21D;54250;45.572;38.086;2023-04-03T05:36:08;22.96;58.32
67364;HTU21D;54250;45.572;38.086;2023-04-03T05:38:39;22.83;57.38
67364;HTU21D;54250;45.572;38.086;2023-04-03T05:41:05;22.97;56.35
67364;HTU21D;54250;45.572;38.086;2023-04-03T05:43:32;23.14;56.01
67364;HTU21D;54250;45.572;38.086;2023-04-03T05:46:01;23.88;54.98
67364;HTU21D;54250;45.572;38.086;2023-04-03T05:48:28;23.54;54.30
67364;HTU21D;54250;45.572;38.086;2023-04-03T05:50:54;23.00;55.56
67364;HTU21D;54250;45.572;38.086;2023-04-03T05:53:29;21.79;57.58
67364;HTU21D;54250;45.572;38.086;2023-04-03T05:56:00;20.34;59.58
67364;HTU21D;54250;45.572;38.086;2023-04-03T05:58:29;19.33;61.15
67364;HTU21D;54250;45.572;38.086;2023-04-03T06:00:55;19.17;61.83
67364;HTU21D;54250;45.572;38.086;2023-04-03T06:03:21;19.88;60.31
67364;HTU21D;54250;45.572;38.086;2023-04-03T06:05:48;22.07;56.17
67364;HTU21D;54250;45.572;38.086;2023-04-03T06:08:14;23.97;52.11
67364;HTU21D;54250;45.572;38.086;2023-04-03T06:10:40;24.66;50.92
67364;HTU21D;54250;45.572;38.086;2023-04-03T06:13:07;24.69;50.64
67364;HTU21D;54250;45.572;38.086;2023-04-03T06:15:33;24.77;50.95
67364;HTU21D;54250;45.572;38.086;2023-04-03T06:18:00;24.24;51.21
67364;HTU21D;54250;45.572;38.086;2023-04-03T06:20:26;23.94;51.61
67364;HTU21D;54250;45.572;38.086;2023-04-03T06:22:53;25.23;50.09
67364;HTU21D;54250;45.572;38.086;2023-04-03T06:25:19;25.80;48.28
67364;HTU21D;54250;45.572;38.086;2023-04-03T06:27:46;26.41;47.60
67364;HTU21D;54250;45.572;38.086;2023-04-03T06:30:13;26.62;47.14
67364;HTU21D;54250;45.572;38.086;2023-04-03T06:32:38;26.67;46.74
67364;HTU21D;54250;45.572;38.086;2023-04-03T06:35:05;27.69;45.70
67364;HTU21D;54250;45.572;38.086;2023-04-03T06:37:32;28.97;43.40
67364;HTU21D;54250;45.572;38.086;2023-04-03T06:39:58;28.83;43.51
67364;HTU21D;54250;45.572;38.086;2023-04-03T06:42:26;29.75;42.41
67364;HTU21D;54250;45.572;38.086;2023-04-03T06:45:12;30.13;41.43
67364;HTU21D;54250;45.572;38.086;2023-04-03T06:47:38;28.31;43.42
67364;HTU21D;54250;45.572;38.086;2023-04-03T06:50:04;26.25;46.35
67364;HTU21D;54250;45.572;38.086;2023-04-03T06:52:32;26.81;45.17
67364;HTU21D;54250;45.572;38.086;2023-04-03T06:54:58;25.71;46.02
67364;HTU21D;54250;45.572;38.086;2023-04-03T06:57:25;24.60;47.91
67364;HTU21D;54250;45.572;38.086;2023-04-03T06:59:51;25.12;47.29
67364;HTU21D;54250;45.572;38.086;2023-04-03T07:02:17;26.45;45.16
67364;HTU21D;54250;45.572;38.086;2023-04-03T07:04:44;28.04;43.05
67364;HTU21D;54250;45.572;38.086;2023-04-03T07:07:10;28.80;41.44
67364;HTU21D;54250;45.572;38.086;2023-04-03T07:09:36;29.23;41.33
67364;HTU21D;54250;45.572;38.086;2023-04-03T07:12:02;30.92;38.97
67364;HTU21D;54250;45.572;38.086;2023-04-03T07:14:28;29.82;39.46
67364;HTU21D;54250;45.572;38.086;2023-04-03T07:16:54;27.74;43.00
67364;HTU21D;54250;45.572;38.086;2023-04-03T07:19:20;28.58;41.66
67364;HTU21D;54250;45.572;38.086;2023-04-03T07:21:47;28.88;40.97
67364;HTU21D;54250;45.572;38.086;2023-04-03T07:24:13;30.44;39.29
67364;HTU21D;54250;45.572;38.086;2023-04-03T07:26:39;29.66;40.02
67364;HTU21D;54250;45.572;38.086;2023-04-03T07:29:05;29.04;41.07
67364;HTU21D;54250;45.572;38.086;2023-04-03T07:31:31;26.95;42.81
67364;HTU21D;54250;45.572;38.086;2023-04-03T07:33:57;25.57;45.48
67364;HTU21D;54250;45.572;38.086;2023-04-03T07:36:23;25.89;45.13
67364;HTU21D;54250;45.572;38.086;2023-04-03T07:38:49;27.01;42.78
67364;HTU21D;54250;45.572;38.086;2023-04-03T07:41:17;27.97;41.40
67364;HTU21D;54250;45.572;38.086;2023-04-03T07:43:44;29.51;39.69
67364;HTU21D;54250;45.572;38.086;2023-04-03T07:46:10;30.00;38.95
67364;HTU21D;54250;45.572;38.086;2023-04-03T07:48:36;29.73;39.54
67364;HTU21D;54250;45.572;38.086;2023-04-03T07:51:03;29.42;39.40
67364;HTU21D;54250;45.572;38.086;2023-04-03T07:53:30;28.28;41.12
67364;HTU21D;54250;45.572;38.086;2023-04-03T07:55:58;26.99;42.72
67364;HTU21D;54250;45.572;38.086;2023-04-03T07:58:24;26.96;43.31
67364;HTU21D;54250;45.572;38.086;2023-04-03T08:00:50;28.19;40.87
67364;HTU21D;54250;45.572;38.086;2023-04-03T08:03:16;27.40;42.20
67364;HTU21D;54250;45.572;38.086;2023-04-03T08:05:45;26.66;42.95
67364;HTU21D;54250;45.572;38.086;2023-04-03T08:08:12;25.08;45.29
67364;HTU21D;54250;45.572;38.086;2023-04-03T08:10:39;23.60;47.68
67364;HTU21D;54250;45.572;38.086;2023-04-03T08:13:05;22.77;48.91
67364;HTU21D;54250;45.572;38.086;2023-04-03T08:15:32;22.16;49.89
67364;HTU21D;54250;45.572;38.086;2023-04-03T08:17:59;21.76;50.33
67364;HTU21D;54250;45.572;38.086;2023-04-03T08:20:26;21.43;50.87
67364;HTU21D;54250;45.572;38.086;2023-04-03T08:22:53;21.89;50.84
67364;HTU21D;54250;45.572;38.086;2023-04-03T08:25:19;23.00;48.23
67364;HTU21D;54250;45.572;38.086;2023-04-03T08:27:45;22.97;48.79
67364;HTU21D;54250;45.572;38.086;2023-04-03T08:30:11;24.05;46.93
67364;HTU21D;54250;45.572;38.086;2023-04-03T08:32:38;24.41;46.60
67364;HTU21D;54250;45.572;38.086;2023-04-03T08:35:04;25.84;44.72
67364;HTU21D;54250;45.572;38.086;2023-04-03T08:37:30;27.91;41.40
67364;HTU21D;54250;45.572;38.086;2023-04-03T08:39:57;28.88;40.60
67364;HTU21D;54250;45.572;38.086;2023-04-03T08:42:36;30.37;39.11
67364;HTU21D;54250;45.572;38.086;2023-04-03T08:48:00;31.38;38.01
67364;HTU21D;54250;45.572;38.086;2023-04-03T08:50:34;31.45;36.74
67364;HTU21D;54250;45.572;38.086;2023-04-03T08:53:02;31.55;36.59
67364;HTU21D;54250;45.572;38.086;2023-04-03T08:55:41;31.78;36.03
67364;HTU21D;54250;45.572;38.086;2023-04-03T08:58:19;30.79;36.21
67364;HTU21D;54250;45.572;38.086;2023-04-03T09:00:54;29.35;38.55
67364;HTU21D;54250;45.572;38.086;2023-04-03T09:03:22;27.51;41.26
67364;HTU21D;54250;45.572;38.086;2023-04-03T09:06:04;27.37;41.55
67364;HTU21D;54250;45.572;38.086;2023-04-03T09:08:33;27.81;40.29
67364;HTU21D;54250;45.572;38.086;2023-04-03T09:11:12;27.21;41.42
67364;HTU21D;54250;45.572;38.086;2023-04-03T09:13:44;27.51;40.36
67364;HTU21D;54250;45.572;38.086;2023-04-03T09:16:38;26.66;41.78
67364;HTU21D;54250;45.572;38.086;2023-04-03T09:24:36;25.61;43.00
67364;HTU21D;54250;45.572;38.086;2023-04-03T09:27:09;25.02;44.26
67364;HTU21D;54250;45.572;38.086;2023-04-03T09:29:42;25.93;42.57
67364;HTU21D;54250;45.572;38.086;2023-04-03T09:32:18;26.58;41.47
67364;HTU21D;54250;45.572;38.086;2023-04-03T09:34:44;27.35;40.48
67364;HTU21D;54250;45.572;38.086;2023-04-03T09:37:50;28.37;39.71
67364;HTU21D;54250;45.572;38.086;2023-04-03T09:42:57;28.29;39.76
67364;HTU21D;54250;45.572;38.086;2023-04-03T09:45:26;27.32;40.39
67364;HTU21D;54250;45.572;38.086;2023-04-03T09:50:37;25.97;42.85
67364;HTU21D;54250;45.572;38.086;2023-04-03T09:53:11;25.36;43.42
67364;HTU21D;54250;45.572;38.086;2023-04-03T09:55:50;24.44;44.75
67364;HTU21D;54250;45.572;38.086;2023-04-03T09:58:26;24.09;45.59
67364;HTU21D;54250;45.572;38.086;2023-04-03T10:00:57;23.82;45.92
67364;HTU21D;54250;45.572;38.086;2023-04-03T10:03:29;23.56;46.66
67364;HTU21D;54250;45.572;38.086;2023-04-03T10:05:55;24.19;45.49
67364;HTU21D;54250;45.572;38.086;2023-04-03T10:08:34;24.89;44.06
67364;HTU21D;54250;45.572;38.086;2023-04-03T10:11:16;24.55;44.51
67364;HTU21D;54250;45.572;38.086;2023-04-03T10:13:54;23.81;45.93
67364;HTU21D;54250;45.572;38.086;2023-04-03T10:16:26;23.29;47.12
67364;HTU21D;54250;45.572;38.086;2023-04-03T10:18:56;23.12;47.31
67364;HTU21D;54250;45.572;38.086;2023-04-03T10:27:18;22.91;47.33
67364;HTU21D;54250;45.572;38.086;2023-04-03T10:30:03;23.16;47.11
67364;HTU21D;54250;45.572;38.086;2023-04-03T10:38:20;24.18;46.23
67364;HTU21D;54250;45.572;38.086;2023-04-03T10:41:07;24.44;45.70
67364;HTU21D;54250;45.572;38.086;2023-04-03T10:44:20;23.98;46.44
67364;HTU21D;54250;45.572;38.086;2023-04-03T10:46:49;23.58;47.22
67364;HTU21D;54250;45.572;38.086;2023-04-03T10:49:56;23.50;47.21
67364;HTU21D;54250;45.572;38.086;2023-04-03T10:52:39;23.22;47.38
67364;HTU21D;54250;45.572;38.086;2023-04-03T10:55:34;23.10;47.70
67364;HTU21D;54250;45.572;38.086;2023-04-03T10:58:02;23.20;47.71
67364;HTU21D;54250;45.572;38.086;2023-04-03T11:00:39;23.31;47.33
67364;HTU21D;54250;45.572;38.086;2023-04-03T11:03:17;23.47;47.12
67364;HTU21D;54250;45.572;38.086;2023-04-03T11:05:50;23.51;47.11
67364;HTU21D;54250;45.572;38.086;2023-04-03T11:10:53;22.91;47.92
67364;HTU21D;54250;45.572;38.086;2023-04-03T11:13:27;22.48;48.57
67364;HTU21D;54250;45.572;38.086;2023-04-03T11:15:54;22.21;48.88
67364;HTU21D;54250;45.572;38.086;2023-04-03T11:23:51;22.10;49.27
67364;HTU21D;54250;45.572;38.086;2023-04-03T11:26:21;22.12;49.20
67364;HTU21D;54250;45.572;38.086;2023-04-03T11:29:03;22.05;49.34
67364;HTU21D;54250;45.572;38.086;2023-04-03T11:32:01;22.06;49.30
67364;HTU21D;54250;45.572;38.086;2023-04-03T11:34:37;22.13;49.12
67364;HTU21D;54250;45.572;38.086;2023-04-03T11:39:51;22.33;48.88
67364;HTU21D;54250;45.572;38.086;2023-04-03T11:53:09;21.15;50.03
67364;HTU21D;54250;45.572;38.086;2023-04-03T12:00:49;20.46;50.95
67364;HTU21D;54250;45.572;38.086;2023-04-03T12:08:46;20.92;50.34
67364;HTU21D;54250;45.572;38.086;2023-04-03T12:14:02;20.84;50.66
67364;HTU21D;54250;45.572;38.086;2023-04-03T12:29:51;20.61;51.23
67364;HTU21D;54250;45.572;38.086;2023-04-03T12:48:27;20.12;52.46
67364;HTU21D;54250;45.572;38.086;2023-04-03T12:50:55;20.07;52.62
67364;HTU21D;54250;45.572;38.086;2023-04-03T12:53:31;20.00;52.81
67364;HTU21D;54250;45.572;38.086;2023-04-03T12:58:51;19.84;53.30
67364;HTU21D;54250;45.572;38.086;2023-04-03T13:01:23;19.80;53.44
67364;HTU21D;54250;45.572;38.086;2023-04-03T13:03:57;19.82;53.46
67364;HTU21D;54250;45.572;38.086;2023-04-03T13:06:28;19.72;53.51
67364;HTU21D;54250;45.572;38.086;2023-04-03T13:08:59;19.58;53.75
67364;HTU21D;54250;45.572;38.086;2023-04-03T13:11:36;19.50;53.95
67364;HTU21D;54250;45.572;38.086;2023-04-03T13:14:16;19.42;54.21
67364;HTU21D;54250;45.572;38.086;2023-04-03T13:16:55;19.43;54.20
67364;HTU21D;54250;45.572;38.086;2023-04-03T13:19:24;19.36;54.23
67364;HTU21D;54250;45.572;38.086;2023-04-03T13:22:06;19.33;54.42
67364;HTU21D;54250;45.572;38.086;2023-04-03T13:24:36;19.35;54.42
67364;HTU21D;54250;45.572;38.086;2023-04-03T13:27:03;19.30;54.46
67364;HTU21D;54250;45.572;38.086;2023-04-03T13:29:36;19.25;54.55
67364;HTU21D;54250;45.572;38.086;2023-04-03T13:32:03;19.23;54.81
67364;HTU21D;54250;45.572;38.086;2023-04-03T13:34:37;19.23;54.84
67364;HTU21D;54250;45.572;38.086;2023-04-03T13:37:04;19.25;54.92
67364;HTU21D;54250;45.572;38.086;2023-04-03T13:39:39;19.28;54.84
67364;HTU21D;54250;45.572;38.086;2023-04-03T13:42:30;19.29;54.82
67364;HTU21D;54250;45.572;38.086;2023-04-03T13:47:44;18.88;56.05
67364;HTU21D;54250;45.572;38.086;2023-04-03T13:50:21;18.43;56.94
67364;HTU21D;54250;45.572;38.086;2023-04-03T13:53:02;18.03;57.79
67364;HTU21D;54250;45.572;38.086;2023-04-03T13:55:35;17.77;58.18
67364;HTU21D;54250;45.572;38.086;2023-04-03T14:03:12;17.31;59.38
67364;HTU21D;54250;45.572;38.086;2023-04-03T14:05:38;17.13;59.67
67364;HTU21D;54250;45.572;38.086;2023-04-03T14:08:04;16.93;59.98
67364;HTU21D;54250;45.572;38.086;2023-04-03T14:10:31;16.80;60.11
67364;HTU21D;54250;45.572;38.086;2023-04-03T14:12:57;16.75;60.47
67364;HTU21D;54250;45.572;38.086;2023-04-03T14:15:27;16.71;60.53
67364;HTU21D;54250;45.572;38.086;2023-04-03T14:17:54;16.67;60.96
67364;HTU21D;54250;45.572;38.086;2023-04-03T14:20:24;16.62;61.19
67364;HTU21D;54250;45.572;38.086;2023-04-03T14:22:51;16.46;61.60
67364;HTU21D;54250;45.572;38.086;2023-04-03T14:25:19;16.39;61.83
67364;HTU21D;54250;45.572;38.086;2023-04-03T14:27:47;16.37;61.79
67364;HTU21D;54250;45.572;38.086;2023-04-03T14:30:20;16.42;61.78
67364;HTU21D;54250;45.572;38.086;2023-04-03T14:32:47;16.39;62.15
67364;HTU21D;54250;45.572;38.086;2023-04-03T14:35:15;16.26;62.73
67364;HTU21D;54250;45.572;38.086;2023-04-03T14:37:41;16.17;62.90
67364;HTU21D;54250;45.572;38.086;2023-04-03T14:40:08;16.02;63.07
67364;HTU21D;54250;45.572;38.086;2023-04-03T14:42:36;15.91;63.30
67364;HTU21D;54250;45.572;38.086;2023-04-03T14:45:08;15.81;63.65
67364;HTU21D;54250;45.572;38.086;2023-04-03T14:47:41;15.66;63.90
67364;HTU21D;54250;45.572;38.086;2023-04-03T14:50:14;15.51;64.24
67364;HTU21D;54250;45.572;38.086;2023-04-03T14:52:42;15.37;64.50
67364;HTU21D;54250;45.572;38.086;2023-04-03T14:55:08;15.25;64.72
67364;HTU21D;54250;45.572;38.086;2023-04-03T14:57:35;15.17;65.00
67364;HTU21D;54250;45.572;38.086;2023-04-03T15:00:03;15.11;65.30
67364;HTU21D;54250;45.572;38.086;2023-04-03T15:02:32;15.01;65.85
67364;HTU21D;54250;45.572;38.086;2023-04-03T15:05:00;14.92;65.93
67364;HTU21D;54250;45.572;38.086;2023-04-03T15:07:28;14.82;66.53
67364;HTU21D;54250;45.572;38.086;2023-04-03T15:09:55;14.70;66.68
67364;HTU21D;54250;45.572;38.086;2023-04-03T15:12:24;14.59;67.49
67364;HTU21D;54250;45.572;38.086;2023-04-03T15:14:50;14.50;67.34
67364;HTU21D;54250;45.572;38.086;2023-04-03T15:17:20;14.40;68.18
67364;HTU21D;54250;45.572;38.086;2023-04-03T15:19:47;14.26;67.98
67364;HTU21D;54250;45.572;38.086;2023-04-03T15:22:18;14.12;68.43
67364;HTU21D;54250;45.572;38.086;2023-04-03T15:24:44;13.94;68.74
67364;HTU21D;54250;45.572;38.086;2023-04-03T15:27:11;13.82;68.67
67364;HTU21D;54250;45.572;38.086;2023-04-03T15:29:39;13.66;69.10
67364;HTU21D;54250;45.572;38.086;2023-04-03T15:32:09;13.49;69.87
67364;HTU21D;54250;45.572;38.086;2023-04-03T15:34:36;13.34;69.59
67364;HTU21D;54250;45.572;38.086;2023-04-03T15:37:03;13.22;70.06
67364;HTU21D;54250;45.572;38.086;2023-04-03T15:39:29;13.08;70.47
67364;HTU21D;54250;45.572;38.086;2023-04-03T15:41:55;12.96;70.82
67364;HTU21D;54250;45.572;38.086;2023-04-03T15:44:22;12.88;70.63
67364;HTU21D;54250;45.572;38.086;2023-04-03T15:46:49;12.77;71.26
67364;HTU21D;54250;45.572;38.086;2023-04-03T15:49:18;12.67;71.58
67364;HTU21D;54250;45.572;38.086;2023-04-03T15:51:45;12.57;71.80
67364;HTU21D;54250;45.572;38.086;2023-04-03T15:54:11;12.49;71.75
67364;HTU21D;54250;45.572;38.086;2023-04-03T15:56:37;12.42;72.00
67364;HTU21D;54250;45.572;38.086;2023-04-03T15:59:04;12.34;73.12
67364;HTU21D;54250;45.572;38.086;2023-04-03T16:01:31;12.32;73.16
67364;HTU21D;54250;45.572;38.086;2023-04-03T16:03:57;12.25;73.00
67364;HTU21D;54250;45.572;38.086;2023-04-03T16:06:24;12.19;73.73
67364;HTU21D;54250;45.572;38.086;2023-04-03T16:08:51;12.13;73.58
67364;HTU21D;54250;45.572;38.086;2023-04-03T16:11:22;12.06;73.77
67364;HTU21D;54250;45.572;38.086;2023-04-03T16:13:48;11.97;73.64
67364;HTU21D;54250;45.572;38.086;2023-04-03T16:16:14;11.89;74.13
67364;HTU21D;54250;45.572;38.086;2023-04-03T16:18:40;11.87;74.41
67364;HTU21D;54250;45.572;38.086;2023-04-03T16:21:08;11.85;74.49
67364;HTU21D;54250;45.572;38.086;2023-04-03T16:23:34;11.85;74.88
67364;HTU21D;54250;45.572;38.086;2023-04-03T16:26:00;11.84;74.85
67364;HTU21D;54250;45.572;38.086;2023-04-03T16:28:26;11.79;75.24
67364;HTU21D;54250;45.572;38.086;2023-04-03T16:30:53;11.76;75.14
67364;HTU21D;54250;45.572;38.086;2023-04-03T16:33:19;11.71;75.32
67364;HTU21D;54250;45.572;38.086;2023-04-03T16:35:47;11.66;75.57
67364;HTU21D;54250;45.572;38.086;2023-04-03T16:38:14;11.61;75.33
67364;HTU21D;54250;45.572;38.086;2023-04-03T16:40:41;11.54;75.37
67364;HTU21D;54250;45.572;38.086;2023-04-03T16:43:07;11.46;75.49
67364;HTU21D;54250;45.572;38.086;2023-04-03T16:45:33;11.44;75.97
67364;HTU21D;54250;45.572;38.086;2023-04-03T16:47:59;11.41;75.89
67364;HTU21D;54250;45.572;38.086;2023-04-03T16:50:25;11.38;75.88
67364;HTU21D;54250;45.572;38.086;2023-04-03T16:52:51;11.32;76.37
67364;HTU21D;54250;45.572;38.086;2023-04-03T16:55:17;11.29;76.41
67364;HTU21D;54250;45.572;38.086;2023-04-03T16:57:43;11.26;76.13
67364;HTU21D;54250;45.572;38.086;2023-04-03T17:00:10;11.18;76.77
67364;HTU21D;54250;45.572;38.086;2023-04-03T17:02:36;11.15;76.75